Terminal Aerodrome Forecast
Issued by NWS North Platte, NE

Home | Current Version | Previous Version | Graphics & Text | Print | Product List | Glossary On
Versions: 1 2 3 4 5 6 7 8 9 10 11 12 13 14 15 16 17 18
621
FTUS43 KLBF 161607 AAB
TAFVTN
TAF AMD
KVTN 161607Z 1616/1712 34009G16KT P6SM -SHRA OVC007
     FM161900 34012KT P6SM BKN020 OVC150
     FM170200 27005KT P6SM SKC=

USA.gov is the U.S. government's official web portal to all federal, state and local government web resources and services.